Time;durP1;ratioP1;P1;durP2;ratioP2;P2;SDS_P1;SDS_P2;PMS_P1;PMS_P2;Temp;Humidity;BMP_temperature;BMP_pressure;BME280_temperature;BME280_humidity;BME280_pressure;Samples;Min_cycle;Max_cycle;Signal;HPM_P1;HPM_P2
2022/07/18 00:00:29;;;;;;;4.77;2.40;;;21.60;47.80;;;;;;4974945;28;20676;-83
2022/07/18 00:02:55;;;;;;;2.33;2.13;;;21.60;47.80;;;;;;4977380;28;20355;-84
2022/07/18 00:05:21;;;;;;;4.50;2.77;;;21.60;47.70;;;;;;4974823;28;20279;-86
2022/07/18 00:07:46;;;;;;;6.40;2.60;;;21.50;48.30;;;;;;4974285;28;20580;-85
2022/07/18 00:10:12;;;;;;;4.27;2.63;;;21.50;47.90;;;;;;4975951;28;20674;-85
2022/07/18 00:12:38;;;;;;;3.23;2.10;;;21.50;47.90;;;;;;4959999;28;20184;-86
2022/07/18 00:15:05;;;;;;;5.10;2.43;;;21.50;48.00;;;;;;4957293;28;20184;-84
2022/07/18 00:17:31;;;;;;;3.47;2.30;;;21.50;48.00;;;;;;4955810;28;20196;-86
2022/07/18 00:19:57;;;;;;;8.23;2.80;;;21.40;47.90;;;;;;4957106;28;20420;-86
2022/07/18 00:22:22;;;;;;;3.53;2.13;;;21.40;48.00;;;;;;4956526;29;20427;-83
2022/07/18 00:24:48;;;;;;;3.10;2.10;;;21.30;48.20;;;;;;4957718;28;20430;-85
2022/07/18 00:27:14;;;;;;;4.40;2.63;;;21.30;48.10;;;;;;4955245;28;20180;-86
2022/07/18 00:29:39;;;;;;;5.90;2.87;;;21.20;48.10;;;;;;4959149;28;20435;-86
2022/07/18 00:32:07;;;;;;;3.70;2.50;;;21.20;48.30;;;;;;4958842;28;20239;-85
2022/07/18 00:34:34;;;;;;;3.60;2.50;;;21.20;48.20;;;;;;4957617;28;20195;-85
2022/07/18 00:36:59;;;;;;;4.27;2.80;;;21.20;48.40;;;;;;4957125;28;20510;-86
2022/07/18 00:39:25;;;;;;;3.47;2.00;;;21.10;48.60;;;;;;4958215;28;20932;-85
2022/07/18 00:41:51;;;;;;;4.13;3.20;;;21.10;48.90;;;;;;4960155;28;20211;-85
2022/07/18 00:44:19;;;;;;;10.20;3.30;;;21.00;48.90;;;;;;4968258;28;20420;-84
2022/07/18 00:46:45;;;;;;;7.27;2.33;;;21.00;49.10;;;;;;4966843;29;20838;-84
2022/07/18 00:49:11;;;;;;;4.50;2.43;;;21.00;49.10;;;;;;4966489;28;20767;-85
2022/07/18 00:51:38;;;;;;;5.80;2.60;;;21.00;48.80;;;;;;4958612;28;20442;-84
2022/07/18 00:54:04;;;;;;;2.83;2.30;;;21.00;48.80;;;;;;4957645;28;20422;-85
2022/07/18 00:56:30;;;;;;;4.77;2.00;;;20.90;48.80;;;;;;4960085;28;20467;-85
2022/07/18 00:58:56;;;;;;;4.30;2.33;;;20.90;49.20;;;;;;4976979;28;20430;-84
2022/07/18 01:04:06;;;;;;;4.43;2.37;;;20.90;49.50;;;;;;4974478;28;20676;-85
2022/07/18 01:06:32;;;;;;;2.73;2.00;;;20.90;49.40;;;;;;4973741;28;20502;-84
2022/07/18 01:08:58;;;;;;;4.73;2.33;;;20.90;48.50;;;;;;4972233;28;20517;-85
2022/07/18 01:11:24;;;;;;;5.07;2.30;;;20.90;48.50;;;;;;4967214;28;20200;-85
2022/07/18 01:13:50;;;;;;;4.50;2.13;;;20.80;48.50;;;;;;4953134;28;20419;-85
2022/07/18 01:16:17;;;;;;;5.53;2.70;;;20.80;48.60;;;;;;4952887;28;20431;-84
2022/07/18 01:18:47;;;;;;;4.67;2.73;;;20.70;49.00;;;;;;4952538;28;20432;-85
2022/07/18 01:21:13;;;;;;;3.47;2.65;;;20.60;48.90;;;;;;4953079;28;20464;-84
2022/07/18 01:23:38;;;;;;;2.63;2.00;;;20.60;49.20;;;;;;4952998;28;20267;-85
2022/07/18 01:26:05;;;;;;;5.43;2.10;;;20.70;49.40;;;;;;4952698;28;20558;-85
2022/07/18 01:28:31;;;;;;;4.90;2.40;;;20.60;49.30;;;;;;4952672;28;20507;-84
2022/07/18 01:30:57;;;;;;;3.67;2.50;;;20.60;49.40;;;;;;4952548;28;20468;-85
2022/07/18 01:33:22;;;;;;;6.73;2.70;;;20.50;49.70;;;;;;4936424;29;20422;-85
2022/07/18 01:35:48;;;;;;;3.27;2.00;;;20.50;49.90;;;;;;4953536;28;20177;-85
2022/07/18 01:38:14;;;;;;;4.73;2.23;;;20.40;49.90;;;;;;4952833;28;20188;-85
2022/07/18 01:40:40;;;;;;;3.42;3.05;;;20.40;50.10;;;;;;4951917;28;20205;-84
2022/07/18 01:43:05;;;;;;;4.30;2.60;;;20.40;50.10;;;;;;4952786;28;20181;-83
2022/07/18 01:45:31;;;;;;;3.60;2.33;;;20.30;50.40;;;;;;4952296;28;20619;-85
2022/07/18 01:47:57;;;;;;;3.23;2.37;;;20.30;50.40;;;;;;4952102;28;20180;-85
2022/07/18 01:50:22;;;;;;;5.20;2.83;;;20.30;50.40;;;;;;4954375;28;20197;-85
2022/07/18 01:52:48;;;;;;;3.83;2.97;;;20.30;50.40;;;;;;4952156;28;20188;-85
2022/07/18 01:55:14;;;;;;;2.23;2.03;;;20.30;50.30;;;;;;4953345;29;20191;-84
2022/07/18 01:57:40;;;;;;;4.60;2.20;;;20.30;50.20;;;;;;4951632;28;20188;-85
2022/07/18 02:00:09;;;;;;;4.20;2.63;;;20.20;50.10;;;;;;4970265;28;20204;-85
2022/07/18 02:02:35;;;;;;;3.87;2.40;;;20.30;50.10;;;;;;4971902;28;20188;-86
2022/07/18 02:05:03;;;;;;;4.33;2.90;;;20.30;50.40;;;;;;4973577;28;20889;-86
2022/07/18 02:07:32;;;;;;;2.92;2.60;;;20.30;50.20;;;;;;4972113;28;20423;-86
2022/07/18 02:09:58;;;;;;;3.42;2.00;;;20.20;50.10;;;;;;4972891;28;20242;-86
2022/07/18 02:12:24;;;;;;;4.60;2.83;;;20.20;50.30;;;;;;4962225;28;20641;-85
2022/07/18 02:14:50;;;;;;;5.10;2.90;;;20.20;50.40;;;;;;4957662;28;20430;-86
2022/07/18 02:17:16;;;;;;;3.97;2.40;;;20.10;50.60;;;;;;4957962;28;20434;-85
2022/07/18 02:19:41;;;;;;;4.00;2.90;;;20.10;50.70;;;;;;4958896;28;20188;-86
2022/07/18 02:22:07;;;;;;;3.13;2.83;;;20.00;50.70;;;;;;4960794;28;20180;-85
2022/07/18 02:24:33;;;;;;;7.57;2.60;;;20.00;50.80;;;;;;4958023;28;20227;-85
2022/07/18 02:27:00;;;;;;;5.17;2.57;;;20.00;50.80;;;;;;4957500;28;20188;-86
2022/07/18 02:29:26;;;;;;;4.17;2.40;;;20.00;50.80;;;;;;4958542;28;20180;-85
2022/07/18 02:31:51;;;;;;;5.03;2.70;;;20.00;50.80;;;;;;4958935;28;20440;-86
2022/07/18 02:34:17;;;;;;;6.97;3.10;;;19.90;50.90;;;;;;4958978;28;20518;-85
2022/07/18 02:36:43;;;;;;;4.53;2.80;;;19.90;50.80;;;;;;4958953;28;20180;-85
2022/07/18 02:39:09;;;;;;;4.63;2.47;;;19.90;50.80;;;;;;4959559;28;20181;-85
2022/07/18 02:41:35;;;;;;;4.28;2.97;;;19.90;51.00;;;;;;4960170;28;20197;-86
2022/07/18 02:44:04;;;;;;;3.70;2.50;;;19.80;51.10;;;;;;4959978;28;20727;-86
2022/07/18 02:46:29;;;;;;;9.50;3.00;;;19.80;51.10;;;;;;4961392;28;20474;-85
2022/07/18 02:48:55;;;;;;;2.77;2.50;;;19.80;51.20;;;;;;4961157;28;20610;-85
2022/07/18 02:51:21;;;;;;;6.10;2.60;;;19.80;51.20;;;;;;4951902;29;20252;-85
2022/07/18 02:53:47;;;;;;;3.10;2.60;;;19.70;51.40;;;;;;4962078;28;20584;-86
2022/07/18 02:56:12;;;;;;;2.40;2.07;;;19.70;51.60;;;;;;4956099;28;20552;-86
2022/07/18 02:58:38;;;;;;;5.50;3.17;;;19.70;51.60;;;;;;4960527;28;20176;-85
2022/07/18 03:01:04;;;;;;;7.23;2.77;;;19.70;51.70;;;;;;4975124;28;20204;-85
2022/07/18 03:03:29;;;;;;;2.70;2.50;;;19.60;52.10;;;;;;4976787;28;20187;-85
2022/07/18 03:05:55;;;;;;;4.10;2.47;;;19.60;52.10;;;;;;4975325;28;20215;-84
2022/07/18 03:08:21;;;;;;;3.30;2.90;;;19.60;51.90;;;;;;4974829;28;20183;-85
2022/07/18 03:10:47;;;;;;;3.83;2.83;;;19.60;51.90;;;;;;4974713;28;20206;-85
2022/07/18 03:13:13;;;;;;;8.70;3.30;;;19.60;52.00;;;;;;4957295;28;20181;-85
2022/07/18 03:15:39;;;;;;;8.35;2.97;;;19.50;52.20;;;;;;4957879;29;20232;-85
2022/07/18 03:18:05;;;;;;;3.78;2.47;;;19.50;52.50;;;;;;4955996;28;20188;-85
2022/07/18 03:20:31;;;;;;;4.50;2.50;;;19.50;52.60;;;;;;4955835;28;20642;-85
2022/07/18 03:22:57;;;;;;;3.70;2.83;;;19.50;53.00;;;;;;4956028;28;20672;-85
2022/07/18 03:25:23;;;;;;;5.33;3.07;;;19.50;53.50;;;;;;4955547;28;20200;-85
2022/07/18 03:27:49;;;;;;;7.63;3.40;;;19.40;54.40;;;;;;4955373;28;20192;-85
2022/07/18 03:30:15;;;;;;;7.03;3.10;;;19.30;54.90;;;;;;4956133;28;20212;-85
2022/07/18 03:32:41;;;;;;;3.67;2.97;;;19.30;54.60;;;;;;4955707;28;20177;-85
2022/07/18 03:35:09;;;;;;;5.40;3.43;;;19.30;55.10;;;;;;4955978;28;20195;-85
2022/07/18 03:37:35;;;;;;;5.07;2.70;;;19.30;54.70;;;;;;4955440;28;20208;-84
2022/07/18 03:40:01;;;;;;;3.60;3.10;;;19.30;54.70;;;;;;4955753;28;20208;-86
2022/07/18 03:42:26;;;;;;;4.77;2.93;;;19.20;54.80;;;;;;4956935;29;20553;-85
2022/07/18 03:44:52;;;;;;;3.83;3.43;;;19.20;55.00;;;;;;4955808;28;20204;-85
2022/07/18 03:47:18;;;;;;;8.30;3.33;;;19.20;55.00;;;;;;4954571;28;20184;-85
2022/07/18 03:49:44;;;;;;;8.10;4.83;;;19.20;54.80;;;;;;4954796;29;20420;-85
2022/07/18 03:52:09;;;;;;;5.30;2.93;;;19.20;54.50;;;;;;4938756;29;20785;-85
2022/07/18 03:54:35;;;;;;;5.87;3.40;;;19.30;54.20;;;;;;4954840;28;20181;-85
2022/07/18 03:57:01;;;;;;;6.33;3.20;;;19.20;54.20;;;;;;4954300;28;20223;-84
2022/07/18 03:59:26;;;;;;;8.20;3.63;;;19.30;54.20;;;;;;4966516;28;20276;-85
2022/07/18 04:01:52;;;;;;;6.53;3.40;;;19.30;54.10;;;;;;4974117;28;20204;-85
2022/07/18 04:04:18;;;;;;;5.50;4.20;;;19.30;54.20;;;;;;4974768;28;20179;-85
2022/07/18 04:06:43;;;;;;;5.43;3.20;;;19.30;54.20;;;;;;4973635;28;20267;-85
2022/07/18 04:09:09;;;;;;;7.30;4.10;;;19.30;54.20;;;;;;4974893;28;20180;-85
2022/07/18 04:11:35;;;;;;;5.90;3.60;;;19.20;54.30;;;;;;4968204;28;20197;-85
2022/07/18 04:14:01;;;;;;;4.23;3.83;;;19.20;54.30;;;;;;4955156;28;20180;-85
2022/07/18 04:16:26;;;;;;;3.73;3.07;;;19.20;55.40;;;;;;4955375;28;20661;-85
2022/07/18 04:18:52;;;;;;;3.80;3.50;;;19.20;54.40;;;;;;4955098;28;20435;-85
2022/07/18 04:21:18;;;;;;;10.20;4.17;;;19.20;54.10;;;;;;4955844;28;20811;-86
2022/07/18 04:23:43;;;;;;;6.63;3.47;;;19.20;54.20;;;;;;4960807;28;20202;-85
2022/07/18 04:26:09;;;;;;;4.80;3.47;;;19.20;54.20;;;;;;4974381;28;20374;-85
2022/07/18 04:28:38;;;;;;;4.27;3.20;;;19.10;54.90;;;;;;4974469;28;20195;-85
2022/07/18 04:31:04;;;;;;;8.93;3.90;;;19.20;54.30;;;;;;4973120;28;20192;-85
2022/07/18 04:33:29;;;;;;;6.30;3.33;;;19.20;54.00;;;;;;4977056;28;20247;-87
2022/07/18 04:35:55;;;;;;;6.73;3.30;;;19.20;54.40;;;;;;4976402;28;20411;-86
2022/07/18 04:38:21;;;;;;;7.33;3.20;;;19.20;54.40;;;;;;4977881;28;20176;-87
2022/07/18 04:40:47;;;;;;;6.93;3.60;;;19.10;54.80;;;;;;4977279;28;20633;-86
2022/07/18 04:43:12;;;;;;;6.63;3.27;;;19.10;54.70;;;;;;4978021;28;20514;-86
2022/07/18 04:45:38;;;;;;;5.17;3.20;;;19.20;54.70;;;;;;4979565;28;20260;-86
2022/07/18 04:48:05;;;;;;;4.90;3.10;;;19.20;54.30;;;;;;4993607;28;20218;-84
2022/07/18 04:50:31;;;;;;;7.05;4.15;;;19.20;54.70;;;;;;4979967;28;20215;-87
2022/07/18 04:52:57;;;;;;;3.30;3.00;;;19.30;54.70;;;;;;4975425;28;20270;-87
2022/07/18 04:55:25;;;;;;;6.30;3.83;;;19.30;54.30;;;;;;4973572;28;20186;-86
2022/07/18 04:57:52;;;;;;;3.25;2.92;;;19.40;54.10;;;;;;4973669;28;20195;-87
2022/07/18 05:00:20;;;;;;;4.30;3.20;;;19.40;53.60;;;;;;4956875;28;20736;-86
2022/07/18 05:02:48;;;;;;;3.47;2.92;;;19.50;53.90;;;;;;4954780;28;20216;-86
2022/07/18 05:05:16;;;;;;;4.47;3.17;;;19.50;53.70;;;;;;4954499;28;20576;-86
2022/07/18 05:07:43;;;;;;;7.43;3.30;;;19.60;53.00;;;;;;4954227;28;20670;-87
2022/07/18 05:10:11;;;;;;;9.23;3.60;;;19.70;52.90;;;;;;4955676;28;20204;-87
2022/07/18 05:12:39;;;;;;;5.43;3.22;;;19.80;52.40;;;;;;4969419;28;20667;-86
2022/07/18 05:15:07;;;;;;;4.25;3.15;;;19.80;52.30;;;;;;4974654;28;20636;-86
2022/07/18 05:17:33;;;;;;;10.52;3.75;;;19.90;51.70;;;;;;4974189;28;20562;-87
2022/07/18 05:19:59;;;;;;;4.75;3.47;;;20.00;51.70;;;;;;4974731;28;20195;-87
2022/07/18 05:22:25;;;;;;;5.67;3.37;;;20.10;51.60;;;;;;4974488;28;20243;-86
2022/07/18 05:24:51;;;;;;;6.97;3.40;;;20.20;51.30;;;;;;4975010;28;20211;-87
2022/07/18 05:27:17;;;;;;;5.40;3.40;;;20.40;50.50;;;;;;4974654;28;20179;-87
2022/07/18 05:29:43;;;;;;;5.17;3.00;;;20.60;50.40;;;;;;4975717;28;20843;-86
2022/07/18 05:32:10;;;;;;;3.33;3.03;;;21.00;49.80;;;;;;4975657;28;20432;-87
2022/07/18 05:34:36;;;;;;;6.17;3.23;;;22.00;47.60;;;;;;4979528;28;20425;-86
2022/07/18 05:37:02;;;;;;;5.83;3.30;;;23.00;45.40;;;;;;4977984;28;20821;-87
2022/07/18 05:39:27;;;;;;;5.03;3.03;;;24.10;42.10;;;;;;4975164;28;20560;-87
2022/07/18 05:41:53;;;;;;;7.10;3.10;;;25.10;39.80;;;;;;4975302;28;20549;-87
2022/07/18 05:44:20;;;;;;;6.33;3.73;;;25.90;37.70;;;;;;4975217;28;20187;-87
2022/07/18 05:46:46;;;;;;;5.07;3.47;;;26.50;36.00;;;;;;4974835;28;20221;-87
2022/07/18 05:49:14;;;;;;;7.43;3.43;;;26.90;34.20;;;;;;4976350;28;20426;-87
2022/07/18 05:51:39;;;;;;;3.30;2.80;;;27.20;34.10;;;;;;4979525;28;20469;-88
2022/07/18 05:54:05;;;;;;;5.27;2.90;;;27.40;33.60;;;;;;4979486;28;20514;-87
2022/07/18 05:56:31;;;;;;;4.97;3.47;;;27.50;32.40;;;;;;4979618;28;20565;-87
2022/07/18 05:58:57;;;;;;;4.47;3.03;;;27.50;32.70;;;;;;4973158;28;20181;-85
2022/07/18 06:01:22;;;;;;;3.50;3.20;;;27.50;32.50;;;;;;4961502;28;20204;-86
2022/07/18 06:03:48;;;;;;;3.70;3.17;;;27.50;32.50;;;;;;4961545;28;20189;-86
2022/07/18 06:06:15;;;;;;;7.03;3.70;;;27.50;32.80;;;;;;4961784;28;20208;-86
2022/07/18 06:08:41;;;;;;;5.87;2.87;;;27.40;33.00;;;;;;4961420;28;20897;-87
2022/07/18 06:11:08;;;;;;;2.93;2.50;;;27.50;32.80;;;;;;4963910;28;20547;-86
2022/07/18 06:13:39;;;;;;;6.20;3.30;;;27.60;32.50;;;;;;4992869;28;20427;-85
2022/07/18 06:16:06;;;;;;;4.53;3.60;;;27.60;32.60;;;;;;4999079;28;20401;-86
2022/07/18 06:18:34;;;;;;;6.27;3.10;;;27.80;32.30;;;;;;4994575;28;20487;-87
2022/07/18 06:21:03;;;;;;;5.00;3.23;;;27.90;32.20;;;;;;4993888;28;20534;-87
2022/07/18 06:23:30;;;;;;;5.00;3.43;;;28.10;32.30;;;;;;4987525;28;20457;-87
2022/07/18 06:25:59;;;;;;;8.00;4.03;;;28.30;32.10;;;;;;4980869;28;20539;-87
2022/07/18 06:28:25;;;;;;;7.43;3.43;;;28.30;32.00;;;;;;4981123;28;20744;-87
2022/07/18 06:30:51;;;;;;;4.53;2.70;;;28.40;31.80;;;;;;4978731;28;20854;-87
2022/07/18 06:33:17;;;;;;;8.63;3.80;;;28.40;32.10;;;;;;4979304;28;20896;-87
2022/07/18 06:35:43;;;;;;;4.20;3.03;;;28.40;32.00;;;;;;4979193;28;20442;-87
2022/07/18 06:38:09;;;;;;;5.37;4.37;;;28.50;32.00;;;;;;4981720;28;20660;-85
2022/07/18 06:40:34;;;;;;;5.50;3.10;;;28.60;31.50;;;;;;4982103;28;20238;-86
2022/07/18 06:43:00;;;;;;;4.67;2.97;;;28.70;31.60;;;;;;4995733;28;20172;-86
2022/07/18 06:45:26;;;;;;;5.00;3.20;;;28.80;31.60;;;;;;4984506;28;20207;-87
2022/07/18 06:47:52;;;;;;;3.47;2.87;;;28.70;31.80;;;;;;4975675;28;20481;-87
2022/07/18 06:50:18;;;;;;;4.33;2.67;;;28.80;31.80;;;;;;4976043;28;20223;-85
2022/07/18 06:52:44;;;;;;;3.80;3.13;;;28.90;32.00;;;;;;4975628;28;20560;-85
2022/07/18 06:55:12;;;;;;;4.43;3.37;;;29.00;32.30;;;;;;4975680;28;20243;-86
2022/07/18 06:57:39;;;;;;;4.23;3.00;;;29.10;32.50;;;;;;4975000;28;20921;-86
2022/07/18 07:00:08;;;;;;;3.57;3.20;;;29.00;32.60;;;;;;4960192;28;20426;-87
2022/07/18 07:02:34;;;;;;;4.57;3.00;;;29.10;32.70;;;;;;4955889;28;20428;-86
2022/07/18 07:04:59;;;;;;;5.30;3.30;;;29.20;32.70;;;;;;4956428;28;20450;-85
2022/07/18 07:07:25;;;;;;;5.60;3.10;;;29.20;32.20;;;;;;4954400;29;20191;-86
2022/07/18 07:09:51;;;;;;;4.73;3.43;;;29.20;31.70;;;;;;4956061;28;20185;-86
2022/07/18 07:12:17;;;;;;;6.47;2.93;;;29.00;33.00;;;;;;4967751;28;20770;-85
2022/07/18 07:14:42;;;;;;;3.67;2.90;;;29.00;33.80;;;;;;4974003;28;20207;-85
2022/07/18 07:17:08;;;;;;;8.50;2.93;;;29.10;34.30;;;;;;4973826;28;20186;-85
2022/07/18 07:19:34;;;;;;;4.80;2.80;;;29.10;32.80;;;;;;4975446;28;20207;-86
2022/07/18 07:21:59;;;;;;;3.60;3.00;;;29.20;32.50;;;;;;4973641;28;20263;-86
2022/07/18 07:24:25;;;;;;;6.83;3.20;;;29.20;32.50;;;;;;4973954;28;20179;-85
2022/07/18 07:26:51;;;;;;;5.50;3.17;;;29.30;31.10;;;;;;4973089;28;20238;-86
2022/07/18 07:29:16;;;;;;;5.67;2.83;;;29.00;32.30;;;;;;4979896;28;20172;-86
2022/07/18 07:31:42;;;;;;;3.80;2.97;;;29.10;31.20;;;;;;4977075;28;20200;-85
2022/07/18 07:34:09;;;;;;;9.47;3.00;;;29.10;30.20;;;;;;4973737;28;20266;-85
2022/07/18 07:36:35;;;;;;;3.03;2.60;;;29.00;31.00;;;;;;4974865;28;20180;-85
2022/07/18 07:39:01;;;;;;;2.90;2.53;;;28.80;30.40;;;;;;4974306;28;20431;-86
2022/07/18 07:41:27;;;;;;;2.67;2.30;;;28.60;30.60;;;;;;4983948;28;20619;-85
2022/07/18 07:43:53;;;;;;;3.93;3.27;;;28.40;31.20;;;;;;4983398;28;20419;-85
2022/07/18 07:46:18;;;;;;;7.53;2.53;;;28.10;31.70;;;;;;4979910;28;20215;-85
2022/07/18 07:48:44;;;;;;;5.10;2.73;;;27.80;31.80;;;;;;4984483;28;20313;-85
2022/07/18 07:51:10;;;;;;;5.77;3.03;;;27.60;32.80;;;;;;4976589;28;20216;-85
2022/07/18 07:53:36;;;;;;;6.00;2.87;;;27.50;32.70;;;;;;4976567;28;20898;-85
2022/07/18 07:56:02;;;;;;;4.40;2.80;;;27.30;34.30;;;;;;4976146;28;20691;-86
2022/07/18 07:58:27;;;;;;;4.13;3.00;;;27.10;35.00;;;;;;4971423;28;20187;-86
2022/07/18 08:00:53;;;;;;;8.57;2.90;;;27.00;36.10;;;;;;4956910;28;20347;-85
2022/07/18 08:03:19;;;;;;;5.13;2.80;;;27.00;35.50;;;;;;4956106;28;20270;-85
2022/07/18 08:05:47;;;;;;;5.60;3.60;;;27.10;35.30;;;;;;4956271;28;20204;-84
2022/07/18 08:08:13;;;;;;;4.97;3.03;;;27.10;35.20;;;;;;4956100;29;20491;-84
2022/07/18 08:10:40;;;;;;;5.80;3.00;;;27.00;35.00;;;;;;4957039;28;20451;-87
2022/07/18 08:13:05;;;;;;;7.20;2.87;;;27.00;35.00;;;;;;4974360;28;20533;-85
2022/07/18 08:15:31;;;;;;;6.20;2.80;;;26.90;34.50;;;;;;4977453;28;20422;-87
2022/07/18 08:17:57;;;;;;;6.80;3.80;;;26.90;35.40;;;;;;4960628;28;20180;-85
2022/07/18 08:20:24;;;;;;;4.30;2.90;;;26.90;35.40;;;;;;4978360;28;20230;-87
2022/07/18 08:23:05;;;;;;;7.30;3.17;;;26.80;35.90;;;;;;4978357;28;20423;-86
2022/07/18 08:25:33;;;;;;;5.90;3.50;;;26.70;37.00;;;;;;4979979;28;20454;-85
2022/07/18 08:27:59;;;;;;;4.47;2.73;;;26.80;37.20;;;;;;4979789;28;20415;-86
2022/07/18 08:30:26;;;;;;;5.50;2.47;;;26.80;38.90;;;;;;4989417;28;20462;-85
2022/07/18 08:32:52;;;;;;;5.60;2.50;;;26.80;37.00;;;;;;4988029;28;20486;-86
2022/07/18 08:35:18;;;;;;;4.97;2.97;;;26.80;37.30;;;;;;4976580;28;20434;-88
2022/07/18 08:37:44;;;;;;;6.07;2.57;;;26.90;36.50;;;;;;4957762;28;20432;-87
2022/07/18 08:40:11;;;;;;;4.23;2.83;;;27.00;36.50;;;;;;4975596;28;20554;-87
2022/07/18 08:42:37;;;;;;;6.60;3.27;;;27.20;36.10;;;;;;4976569;28;20415;-87
2022/07/18 08:45:04;;;;;;;5.03;3.30;;;27.20;35.50;;;;;;4976149;28;20815;-87
2022/07/18 08:47:30;;;;;;;7.70;4.10;;;27.30;35.70;;;;;;4974954;28;20446;-87
2022/07/18 08:49:56;;;;;;;5.83;2.87;;;27.30;35.00;;;;;;4976624;28;20411;-87
2022/07/18 08:52:22;;;;;;;5.07;2.80;;;27.30;35.80;;;;;;4975040;28;20501;-85
2022/07/18 08:54:48;;;;;;;6.97;3.27;;;26.90;36.20;;;;;;4975296;28;20434;-87
2022/07/18 08:57:15;;;;;;;5.40;2.90;;;27.00;36.20;;;;;;4976324;28;20918;-87
2022/07/18 08:59:41;;;;;;;7.73;2.97;;;27.20;35.60;;;;;;4962813;28;20420;-86
2022/07/18 09:02:10;;;;;;;6.40;3.00;;;27.20;36.10;;;;;;4957477;28;20438;-88
2022/07/18 09:04:38;;;;;;;4.80;2.23;;;27.10;38.00;;;;;;4956728;29;20180;-87
2022/07/18 09:07:06;;;;;;;7.00;3.30;;;27.00;37.60;;;;;;4961826;28;20423;-85
2022/07/18 09:09:32;;;;;;;4.00;2.40;;;27.20;36.00;;;;;;4967522;28;20944;-87
2022/07/18 09:12:16;;;;;;;4.00;2.30;;;27.40;33.80;;;;;;4954704;28;20503;-87
2022/07/18 09:14:44;;;;;;;4.70;2.50;;;27.50;32.60;;;;;;4954969;28;20552;-87
2022/07/18 09:17:17;;;;;;;6.30;2.10;;;27.60;31.60;;;;;;4955349;28;20927;-87
2022/07/18 09:19:59;;;;;;;2.70;2.10;;;27.70;30.90;;;;;;4955761;28;20428;-86
2022/07/18 09:22:26;;;;;;;6.73;1.90;;;27.70;31.70;;;;;;4955366;28;20444;-87
2022/07/18 09:25:02;;;;;;;4.17;2.27;;;27.70;32.70;;;;;;4954843;28;20563;-86
2022/07/18 09:27:46;;;;;;;5.40;3.33;;;27.60;33.20;;;;;;4955138;28;20426;-87
2022/07/18 09:30:21;;;;;;;4.23;2.37;;;27.70;33.40;;;;;;4955465;28;20514;-87
2022/07/18 09:32:52;;;;;;;4.50;2.30;;;27.70;32.50;;;;;;4955983;28;20415;-85
2022/07/18 09:35:24;;;;;;;5.20;2.50;;;27.70;33.40;;;;;;4957163;28;20453;-87
2022/07/18 09:38:04;;;;;;;3.80;2.43;;;27.80;32.60;;;;;;4955362;28;20436;-86
2022/07/18 09:40:41;;;;;;;5.83;2.47;;;27.80;33.10;;;;;;4956644;28;20453;-87
2022/07/18 09:43:11;;;;;;;5.77;2.40;;;27.80;33.70;;;;;;4953184;29;20443;-86
2022/07/18 09:45:43;;;;;;;3.33;2.27;;;27.70;33.30;;;;;;4954983;28;20470;-87
2022/07/18 09:48:13;;;;;;;3.10;2.00;;;27.70;32.80;;;;;;4955386;28;20419;-86
2022/07/18 09:50:58;;;;;;;2.73;1.70;;;27.70;32.80;;;;;;4957464;28;20432;-86
2022/07/18 09:53:30;;;;;;;4.43;2.50;;;27.70;33.00;;;;;;4955854;28;20789;-87
2022/07/18 09:56:03;;;;;;;4.40;2.20;;;27.90;30.30;;;;;;4955666;28;20426;-87
2022/07/18 09:58:31;;;;;;;2.00;1.80;;;28.10;30.90;;;;;;4959151;28;20778;-87
2022/07/18 10:00:58;;;;;;;2.43;1.97;;;28.20;30.20;;;;;;4975764;28;20473;-85
2022/07/18 10:03:24;;;;;;;3.87;1.97;;;28.20;30.00;;;;;;4976379;28;20430;-85
2022/07/18 10:05:52;;;;;;;3.33;1.87;;;28.20;30.00;;;;;;4977349;28;20472;-87
2022/07/18 10:08:21;;;;;;;3.30;1.80;;;28.20;30.80;;;;;;4976949;28;20433;-85
2022/07/18 10:10:49;;;;;;;5.30;2.40;;;28.10;30.30;;;;;;4978044;28;20447;-86
2022/07/18 10:13:16;;;;;;;4.00;2.10;;;28.10;30.30;;;;;;4964966;28;20427;-86
2022/07/18 10:15:43;;;;;;;2.57;1.83;;;28.30;30.00;;;;;;4968890;28;20830;-86
2022/07/18 10:18:12;;;;;;;5.20;2.53;;;28.40;30.30;;;;;;4956007;28;20810;-86
2022/07/18 10:21:03;;;;;;;4.40;2.20;;;28.40;30.00;;;;;;4958507;28;20563;-87
2022/07/18 10:23:43;;;;;;;2.77;2.40;;;28.60;30.00;;;;;;4952633;29;20424;-86
2022/07/18 10:26:15;;;;;;;2.70;2.30;;;28.80;30.00;;;;;;4956793;28;20896;-86
2022/07/18 10:28:56;;;;;;;3.40;2.37;;;28.90;30.00;;;;;;4956183;28;20941;-86
2022/07/18 10:31:27;;;;;;;2.37;2.00;;;28.80;30.00;;;;;;4955968;28;20450;-86
2022/07/18 10:34:08;;;;;;;3.87;2.13;;;28.70;30.50;;;;;;4961653;28;20412;-86
2022/07/18 10:36:36;;;;;;;4.33;1.97;;;28.80;30.10;;;;;;4959212;28;20809;-87
2022/07/18 10:39:20;;;;;;;3.90;2.80;;;29.00;30.40;;;;;;4961484;28;20422;-86
2022/07/18 10:41:45;;;;;;;2.70;1.87;;;29.20;30.00;;;;;;4959609;28;20810;-86
2022/07/18 10:44:26;;;;;;;2.63;2.23;;;29.30;30.00;;;;;;4959145;28;20420;-86
2022/07/18 10:47:11;;;;;;;4.50;2.90;;;29.40;30.00;;;;;;4958362;28;20214;-86
2022/07/18 10:49:49;;;;;;;4.23;2.57;;;29.40;30.00;;;;;;4960570;28;20431;-87
2022/07/18 10:52:27;;;;;;;3.30;2.30;;;29.50;30.00;;;;;;4990646;23;20494;-88
2022/07/18 10:57:29;;;;;;;6.27;2.47;;;29.60;30.00;;;;;;4990825;28;20411;-89
2022/07/18 11:00:10;;;;;;;2.20;1.97;;;29.70;30.00;;;;;;4978697;28;20553;-89
2022/07/18 11:03:02;;;;;;;1.70;1.60;;;29.70;30.00;;;;;;4977672;28;20494;-89
2022/07/18 11:05:28;;;;;;;2.30;2.10;;;29.50;30.00;;;;;;4979883;28;20610;-88
2022/07/18 11:07:58;;;;;;;3.47;2.47;;;29.40;30.00;;;;;;4989831;28;20437;-88
2022/07/18 11:10:51;;;;;;;3.20;2.10;;;29.60;30.00;;;;;;4993073;28;20421;-89
2022/07/18 11:13:29;;;;;;;4.77;2.43;;;29.60;30.00;;;;;;4994960;28;20470;-88
2022/07/18 11:16:18;;;;;;;2.50;2.30;;;29.60;30.00;;;;;;4995212;28;20415;-89
2022/07/18 11:18:43;;;;;;;3.90;2.23;;;29.70;30.00;;;;;;4994534;28;20406;-88
2022/07/18 11:21:29;;;;;;;2.40;1.90;;;29.50;30.00;;;;;;4994133;28;20450;-88
2022/07/18 11:24:03;;;;;;;3.40;2.43;;;29.50;30.00;;;;;;4993305;28;20209;-88
2022/07/18 11:26:30;;;;;;;3.03;2.10;;;29.50;30.00;;;;;;4989533;28;20466;-88
2022/07/18 11:29:06;;;;;;;2.50;2.30;;;29.40;30.00;;;;;;4994266;28;20419;-88
2022/07/18 11:31:42;;;;;;;4.07;1.93;;;29.40;30.00;;;;;;4992521;28;20442;-88
2022/07/18 11:34:08;;;;;;;4.90;1.93;;;29.40;30.00;;;;;;4991726;28;20397;-88
2022/07/18 11:36:34;;;;;;;2.63;2.43;;;29.50;30.00;;;;;;4988497;28;20773;-89
2022/07/18 11:39:03;;;;;;;3.27;2.00;;;29.60;30.00;;;;;;4992732;28;20188;-89
2022/07/18 11:41:29;;;;;;;3.97;2.10;;;29.50;30.00;;;;;;4970893;28;20187;-90
2022/07/18 11:43:56;;;;;;;2.73;2.53;;;29.50;30.00;;;;;;4982289;28;20414;-90
2022/07/18 11:46:27;;;;;;;4.73;2.67;;;29.40;30.00;;;;;;4981064;28;20445;-90
2022/07/18 11:49:04;;;;;;;2.50;2.27;;;29.50;30.00;;;;;;4995905;28;20419;-90
2022/07/18 11:51:41;;;;;;;3.07;2.10;;;29.40;30.00;;;;;;4980342;28;20476;-89
2022/07/18 11:54:08;;;;;;;6.07;2.17;;;29.50;30.00;;;;;;4962226;28;20439;-89
2022/07/18 11:56:48;;;;;;;2.80;1.80;;;29.50;30.00;;;;;;4981062;28;20389;-89
2022/07/18 11:59:15;;;;;;;2.77;1.90;;;29.60;30.00;;;;;;4978105;28;20419;-89
2022/07/18 12:01:41;;;;;;;4.30;2.23;;;29.90;30.00;;;;;;4966030;28;20500;-89
2022/07/18 12:04:14;;;;;;;2.53;2.07;;;30.20;30.00;;;;;;4990460;28;20411;-89
2022/07/18 12:06:40;;;;;;;3.90;2.77;;;30.20;30.00;;;;;;4993264;28;20457;-88
2022/07/18 12:09:06;;;;;;;2.57;2.10;;;30.40;30.00;;;;;;4989174;28;20439;-89
2022/07/18 12:11:32;;;;;;;4.70;2.07;;;30.40;30.00;;;;;;4985165;28;20439;-89
2022/07/18 12:14:08;;;;;;;3.53;2.10;;;30.50;30.00;;;;;;4977527;28;20397;-89
2022/07/18 12:16:38;;;;;;;2.57;2.30;;;30.60;30.00;;;;;;4977586;28;20258;-89
2022/07/18 12:19:15;;;;;;;3.87;2.40;;;30.60;30.00;;;;;;4976939;28;20975;-89
2022/07/18 12:21:49;;;;;;;5.57;2.40;;;30.70;30.00;;;;;;4976519;28;20464;-90
2022/07/18 12:24:31;;;;;;;2.63;2.30;;;30.80;30.00;;;;;;4977004;28;20401;-88
2022/07/18 12:27:21;;;;;;;2.57;2.30;;;30.90;30.00;;;;;;4976692;28;20452;-88
2022/07/18 12:30:19;;;;;;;2.63;2.43;;;31.00;30.00;;;;;;4964398;28;20398;-89
2022/07/18 12:32:56;;;;;;;7.30;2.90;;;31.00;30.00;;;;;;4975574;28;20509;-89
2022/07/18 12:35:35;;;;;;;3.00;2.10;;;31.20;30.00;;;;;;4977214;28;20514;-89
2022/07/18 12:38:01;;;;;;;4.23;2.10;;;31.30;30.00;;;;;;4975200;28;20423;-89
2022/07/18 12:40:48;;;;;;;2.37;2.17;;;31.40;30.00;;;;;;4975686;28;20810;-89
2022/07/18 12:43:22;;;;;;;3.50;2.10;;;31.40;30.00;;;;;;4990837;28;20478;-89
2022/07/18 12:45:48;;;;;;;3.40;2.40;;;31.50;30.00;;;;;;4978749;28;20481;-89
2022/07/18 12:48:14;;;;;;;3.10;2.03;;;31.60;30.10;;;;;;4975984;28;20462;-89
2022/07/18 12:50:41;;;;;;;5.93;2.70;;;31.70;30.10;;;;;;4974875;28;20857;-89
2022/07/18 12:53:08;;;;;;;2.43;2.10;;;31.80;30.10;;;;;;4976039;28;20230;-89
2022/07/18 12:55:34;;;;;;;6.87;2.23;;;31.80;30.10;;;;;;4991367;28;20459;-90